sensor_id;sensor_type;location;lat;lon;timestamp;pressure;altitude;pressure_sealevel;temperature
75428;BMP280;64008;55.612;37.698;2023-01-28T00:00:34;100298.53;;;11.80
75428;BMP280;64008;55.612;37.698;2023-01-28T00:02:59;100294.22;;;11.60
75428;BMP280;64008;55.612;37.698;2023-01-28T00:05:25;100297.22;;;11.89
75428;BMP280;64008;55.612;37.698;2023-01-28T00:07:51;100288.19;;;11.97
75428;BMP280;64008;55.612;37.698;2023-01-28T00:10:17;100292.56;;;12.21
75428;BMP280;64008;55.612;37.698;2023-01-28T00:12:43;100285.53;;;12.45
75428;BMP280;64008;55.612;37.698;2023-01-28T00:15:10;100291.47;;;12.10
75428;BMP280;64008;55.612;37.698;2023-01-28T00:17:36;100285.44;;;12.03
75428;BMP280;64008;55.612;37.698;2023-01-28T00:20:03;100285.59;;;12.08
75428;BMP280;64008;55.612;37.698;2023-01-28T00:22:28;100288.72;;;12.17
75428;BMP280;64008;55.612;37.698;2023-01-28T00:24:54;100284.47;;;12.16
75428;BMP280;64008;55.612;37.698;2023-01-28T00:27:19;100282.56;;;12.35
75428;BMP280;64008;55.612;37.698;2023-01-28T00:29:45;100293.25;;;12.47
75428;BMP280;64008;55.612;37.698;2023-01-28T00:32:10;100285.50;;;12.15
75428;BMP280;64008;55.612;37.698;2023-01-28T00:34:36;100285.72;;;12.14
75428;BMP280;64008;55.612;37.698;2023-01-28T00:37:01;100288.94;;;12.16
75428;BMP280;64008;55.612;37.698;2023-01-28T00:39:27;100298.34;;;12.30
75428;BMP280;64008;55.612;37.698;2023-01-28T00:41:54;100296.69;;;11.99
75428;BMP280;64008;55.612;37.698;2023-01-28T00:44:20;100304.13;;;12.08
75428;BMP280;64008;55.612;37.698;2023-01-28T00:46:46;100304.34;;;12.07
75428;BMP280;64008;55.612;37.698;2023-01-28T00:49:12;100297.06;;;12.02
75428;BMP280;64008;55.612;37.698;2023-01-28T00:51:37;100312.03;;;12.27
75428;BMP280;64008;55.612;37.698;2023-01-28T00:54:03;100303.75;;;11.86
75428;BMP280;64008;55.612;37.698;2023-01-28T00:56:29;100307.44;;;12.04
75428;BMP280;64008;55.612;37.698;2023-01-28T00:58:54;100306.72;;;11.97
75428;BMP280;64008;55.612;37.698;2023-01-28T01:01:23;100307.56;;;12.09
75428;BMP280;64008;55.612;37.698;2023-01-28T01:03:49;100306.97;;;12.07
75428;BMP280;64008;55.612;37.698;2023-01-28T01:06:33;100315.88;;;11.94
75428;BMP280;64008;55.612;37.698;2023-01-28T01:09:00;100314.31;;;12.23
75428;BMP280;64008;55.612;37.698;2023-01-28T01:11:26;100301.97;;;12.17
75428;BMP280;64008;55.612;37.698;2023-01-28T01:13:56;100307.38;;;12.41
75428;BMP280;64008;55.612;37.698;2023-01-28T01:16:30;100310.81;;;12.41
75428;BMP280;64008;55.612;37.698;2023-01-28T01:18:57;100306.00;;;12.01
75428;BMP280;64008;55.612;37.698;2023-01-28T01:21:25;100309.31;;;11.78
75428;BMP280;64008;55.612;37.698;2023-01-28T01:23:54;100302.91;;;12.11
75428;BMP280;64008;55.612;37.698;2023-01-28T01:26:20;100305.00;;;12.21
75428;BMP280;64008;55.612;37.698;2023-01-28T01:28:46;100305.75;;;12.09
75428;BMP280;64008;55.612;37.698;2023-01-28T01:31:16;100301.59;;;12.14
75428;BMP280;64008;55.612;37.698;2023-01-28T01:33:43;100298.78;;;11.97
75428;BMP280;64008;55.612;37.698;2023-01-28T01:36:11;100306.19;;;12.06
75428;BMP280;64008;55.612;37.698;2023-01-28T01:38:36;100300.00;;;11.94
75428;BMP280;64008;55.612;37.698;2023-01-28T01:41:04;100301.66;;;12.25
75428;BMP280;64008;55.612;37.698;2023-01-28T01:43:50;100301.41;;;12.34
75428;BMP280;64008;55.612;37.698;2023-01-28T01:46:21;100292.56;;;12.21
75428;BMP280;64008;55.612;37.698;2023-01-28T01:48:48;100301.53;;;12.39
75428;BMP280;64008;55.612;37.698;2023-01-28T01:51:18;100299.66;;;12.39
75428;BMP280;64008;55.612;37.698;2023-01-28T01:53:48;100295.50;;;12.13
75428;BMP280;64008;55.612;37.698;2023-01-28T01:56:18;100300.16;;;12.18
75428;BMP280;64008;55.612;37.698;2023-01-28T01:58:48;100303.38;;;12.01
75428;BMP280;64008;55.612;37.698;2023-01-28T02:01:15;100301.44;;;11.97
75428;BMP280;64008;55.612;37.698;2023-01-28T02:03:56;100301.03;;;12.11
75428;BMP280;64008;55.612;37.698;2023-01-28T02:06:25;100305.75;;;12.09
75428;BMP280;64008;55.612;37.698;2023-01-28T02:08:53;100300.81;;;12.13
75428;BMP280;64008;55.612;37.698;2023-01-28T02:11:20;100305.44;;;11.99
75428;BMP280;64008;55.612;37.698;2023-01-28T02:13:50;100304.56;;;11.87
75428;BMP280;64008;55.612;37.698;2023-01-28T02:16:16;100310.88;;;11.86
75428;BMP280;64008;55.612;37.698;2023-01-28T02:18:42;100306.63;;;12.03
75428;BMP280;64008;55.612;37.698;2023-01-28T02:32:14;100316.56;;;11.89
75428;BMP280;64008;55.612;37.698;2023-01-28T02:34:50;100310.22;;;12.09
75428;BMP280;64008;55.612;37.698;2023-01-28T02:37:21;100321.47;;;11.86
75428;BMP280;64008;55.612;37.698;2023-01-28T02:40:04;100318.53;;;11.76
75428;BMP280;64008;55.612;37.698;2023-01-28T02:42:34;100318.78;;;11.49
75428;BMP280;64008;55.612;37.698;2023-01-28T02:45:01;100322.97;;;11.57
75428;BMP280;64008;55.612;37.698;2023-01-28T02:47:26;100325.22;;;11.60
75428;BMP280;64008;55.612;37.698;2023-01-28T02:50:13;100323.56;;;11.34
75428;BMP280;64008;55.612;37.698;2023-01-28T02:58:36;100336.53;;;11.17
75428;BMP280;64008;55.612;37.698;2023-01-28T03:01:24;100343.53;;;11.04
75428;BMP280;64008;55.612;37.698;2023-01-28T03:04:09;100344.25;;;11.18
75428;BMP280;64008;55.612;37.698;2023-01-28T03:06:43;100346.25;;;11.23
75428;BMP280;64008;55.612;37.698;2023-01-28T03:09:11;100345.41;;;11.22
75428;BMP280;64008;55.612;37.698;2023-01-28T03:11:53;100337.72;;;11.46
75428;BMP280;64008;55.612;37.698;2023-01-28T03:14:38;100340.72;;;11.75
75428;BMP280;64008;55.612;37.698;2023-01-28T03:17:59;100346.59;;;11.58
75428;BMP280;64008;55.612;37.698;2023-01-28T03:24:23;100347.03;;;11.23
75428;BMP280;64008;55.612;37.698;2023-01-28T03:26:53;100350.19;;;11.39
75428;BMP280;64008;55.612;37.698;2023-01-28T03:29:40;100351.38;;;11.18
75428;BMP280;64008;55.612;37.698;2023-01-28T03:32:25;100348.56;;;11.38
75428;BMP280;64008;55.612;37.698;2023-01-28T03:35:11;100351.53;;;11.73
75428;BMP280;64008;55.612;37.698;2023-01-28T03:37:57;100358.97;;;11.83
75428;BMP280;64008;55.612;37.698;2023-01-28T03:40:25;100351.19;;;11.88
75428;BMP280;64008;55.612;37.698;2023-01-28T03:42:50;100340.97;;;12.10
75428;BMP280;64008;55.612;37.698;2023-01-28T03:45:16;100341.50;;;12.00
75428;BMP280;64008;55.612;37.698;2023-01-28T03:47:42;100353.38;;;11.73
75428;BMP280;64008;55.612;37.698;2023-01-28T03:50:09;100343.09;;;12.20
75428;BMP280;64008;55.612;37.698;2023-01-28T03:52:34;100349.44;;;12.37
75428;BMP280;64008;55.612;37.698;2023-01-28T03:55:00;100350.91;;;12.15
75428;BMP280;64008;55.612;37.698;2023-01-28T03:57:27;100349.28;;;12.14
75428;BMP280;64008;55.612;37.698;2023-01-28T03:59:55;100348.09;;;11.73
75428;BMP280;64008;55.612;37.698;2023-01-28T04:02:22;100344.50;;;11.60
75428;BMP280;64008;55.612;37.698;2023-01-28T04:04:47;100348.00;;;11.98
75428;BMP280;64008;55.612;37.698;2023-01-28T04:07:15;100340.25;;;11.59
75428;BMP280;64008;55.612;37.698;2023-01-28T04:09:41;100337.22;;;11.81
75428;BMP280;64008;55.612;37.698;2023-01-28T04:12:08;100344.72;;;11.84
75428;BMP280;64008;55.612;37.698;2023-01-28T04:14:34;100336.06;;;11.70
75428;BMP280;64008;55.612;37.698;2023-01-28T04:16:59;100353.59;;;11.46
75428;BMP280;64008;55.612;37.698;2023-01-28T04:19:25;100345.09;;;11.62
75428;BMP280;64008;55.612;37.698;2023-01-28T04:21:51;100358.31;;;11.12
75428;BMP280;64008;55.612;37.698;2023-01-28T04:24:20;100355.56;;;11.25
75428;BMP280;64008;55.612;37.698;2023-01-28T04:26:46;100354.50;;;11.33
75428;BMP280;64008;55.612;37.698;2023-01-28T04:29:11;100358.53;;;11.10
75428;BMP280;64008;55.612;37.698;2023-01-28T04:31:37;100361.50;;;11.27
75428;BMP280;64008;55.612;37.698;2023-01-28T04:34:02;100367.94;;;11.31
75428;BMP280;64008;55.612;37.698;2023-01-28T04:36:28;100356.56;;;11.31
75428;BMP280;64008;55.612;37.698;2023-01-28T04:38:53;100355.47;;;11.39
75428;BMP280;64008;55.612;37.698;2023-01-28T04:41:19;100351.66;;;11.60
75428;BMP280;64008;55.612;37.698;2023-01-28T04:43:44;100368.03;;;11.50
75428;BMP280;64008;55.612;37.698;2023-01-28T04:46:10;100371.81;;;11.36
75428;BMP280;64008;55.612;37.698;2023-01-28T04:48:36;100362.13;;;11.48
75428;BMP280;64008;55.612;37.698;2023-01-28T04:51:02;100359.91;;;11.20
75428;BMP280;64008;55.612;37.698;2023-01-28T04:53:28;100365.34;;;11.25
75428;BMP280;64008;55.612;37.698;2023-01-28T04:55:54;100360.91;;;11.19
75428;BMP280;64008;55.612;37.698;2023-01-28T04:58:20;100367.31;;;11.36
75428;BMP280;64008;55.612;37.698;2023-01-28T05:00:45;100363.09;;;11.28
75428;BMP280;64008;55.612;37.698;2023-01-28T05:03:10;100374.59;;;11.41
75428;BMP280;64008;55.612;37.698;2023-01-28T05:05:36;100372.56;;;11.43
75428;BMP280;64008;55.612;37.698;2023-01-28T05:08:04;100375.78;;;11.13
75428;BMP280;64008;55.612;37.698;2023-01-28T05:10:29;100367.47;;;11.09
75428;BMP280;64008;55.612;37.698;2023-01-28T05:12:55;100370.78;;;11.30
75428;BMP280;64008;55.612;37.698;2023-01-28T05:15:21;100371.94;;;11.09
75428;BMP280;64008;55.612;37.698;2023-01-28T05:17:46;100375.84;;;11.06
75428;BMP280;64008;55.612;37.698;2023-01-28T05:20:13;100378.81;;;10.85
75428;BMP280;64008;55.612;37.698;2023-01-28T05:22:40;100380.72;;;10.71
75428;BMP280;64008;55.612;37.698;2023-01-28T05:25:06;100385.00;;;10.59
75428;BMP280;64008;55.612;37.698;2023-01-28T05:27:32;100380.59;;;10.39
75428;BMP280;64008;55.612;37.698;2023-01-28T05:29:58;100373.91;;;10.37
75428;BMP280;64008;55.612;37.698;2023-01-28T05:32:25;100378.38;;;10.36
75428;BMP280;64008;55.612;37.698;2023-01-28T05:34:50;100386.56;;;10.21
75428;BMP280;64008;55.612;37.698;2023-01-28T05:37:16;100388.75;;;10.18
75428;BMP280;64008;55.612;37.698;2023-01-28T05:39:41;100382.28;;;10.07
75428;BMP280;64008;55.612;37.698;2023-01-28T05:42:08;100379.88;;;9.99
75428;BMP280;64008;55.612;37.698;2023-01-28T05:44:33;100390.66;;;10.04
75428;BMP280;64008;55.612;37.698;2023-01-28T05:47:00;100381.28;;;10.01
75428;BMP280;64008;55.612;37.698;2023-01-28T05:49:25;100386.56;;;9.88
75428;BMP280;64008;55.612;37.698;2023-01-28T05:51:51;100385.94;;;10.06
75428;BMP280;64008;55.612;37.698;2023-01-28T05:54:17;100391.22;;;10.06
75428;BMP280;64008;55.612;37.698;2023-01-28T05:56:43;100394.69;;;9.93
75428;BMP280;64008;55.612;37.698;2023-01-28T05:59:12;100387.81;;;9.92
75428;BMP280;64008;55.612;37.698;2023-01-28T06:01:37;100389.44;;;9.86
75428;BMP280;64008;55.612;37.698;2023-01-28T06:04:03;100392.88;;;9.87
75428;BMP280;64008;55.612;37.698;2023-01-28T06:06:28;100395.13;;;9.77
75428;BMP280;64008;55.612;37.698;2023-01-28T06:08:54;100391.44;;;9.78
75428;BMP280;64008;55.612;37.698;2023-01-28T06:11:19;100410.13;;;9.83
75428;BMP280;64008;55.612;37.698;2023-01-28T06:13:45;100399.59;;;9.76
75428;BMP280;64008;55.612;37.698;2023-01-28T06:16:10;100403.03;;;9.77
75428;BMP280;64008;55.612;37.698;2023-01-28T06:18:36;100405.44;;;9.78
75428;BMP280;64008;55.612;37.698;2023-01-28T06:21:01;100407.88;;;9.80
75428;BMP280;64008;55.612;37.698;2023-01-28T06:23:27;100404.25;;;9.67
75428;BMP280;64008;55.612;37.698;2023-01-28T06:25:55;100403.63;;;9.72
75428;BMP280;64008;55.612;37.698;2023-01-28T06:28:21;100418.44;;;9.66
75428;BMP280;64008;55.612;37.698;2023-01-28T06:30:48;100416.81;;;9.65
75428;BMP280;64008;55.612;37.698;2023-01-28T06:33:13;100413.97;;;9.67
75428;BMP280;64008;55.612;37.698;2023-01-28T06:35:39;100403.84;;;9.77
75428;BMP280;64008;55.612;37.698;2023-01-28T06:38:04;100414.56;;;9.62
75428;BMP280;64008;55.612;37.698;2023-01-28T06:40:30;100408.91;;;9.85
75428;BMP280;64008;55.612;37.698;2023-01-28T06:42:55;100409.53;;;9.81
75428;BMP280;64008;55.612;37.698;2023-01-28T06:45:21;100407.09;;;9.86
75428;BMP280;64008;55.612;37.698;2023-01-28T06:47:46;100408.28;;;9.97
75428;BMP280;64008;55.612;37.698;2023-01-28T06:50:12;100408.50;;;9.82
75428;BMP280;64008;55.612;37.698;2023-01-28T06:52:38;100415.22;;;9.84
75428;BMP280;64008;55.612;37.698;2023-01-28T06:55:04;100419.66;;;10.10
75428;BMP280;64008;55.612;37.698;2023-01-28T06:57:29;100420.88;;;9.95
75428;BMP280;64008;55.612;37.698;2023-01-28T06:59:55;100422.31;;;10.10
75428;BMP280;64008;55.612;37.698;2023-01-28T07:02:20;100426.56;;;10.05
75428;BMP280;64008;55.612;37.698;2023-01-28T07:04:52;100425.94;;;9.96
75428;BMP280;64008;55.612;37.698;2023-01-28T07:07:17;100436.91;;;10.00
75428;BMP280;64008;55.612;37.698;2023-01-28T07:09:43;100424.34;;;10.02
75428;BMP280;64008;55.612;37.698;2023-01-28T07:12:08;100433.44;;;10.06
75428;BMP280;64008;55.612;37.698;2023-01-28T07:14:34;100437.94;;;10.12
75428;BMP280;64008;55.612;37.698;2023-01-28T07:16:59;100439.97;;;10.17
75428;BMP280;64008;55.612;37.698;2023-01-28T07:19:25;100436.31;;;10.11
75428;BMP280;64008;55.612;37.698;2023-01-28T07:21:50;100439.34;;;10.08
75428;BMP280;64008;55.612;37.698;2023-01-28T07:24:21;100438.34;;;9.89
75428;BMP280;64008;55.612;37.698;2023-01-28T07:26:47;100442.19;;;10.06
75428;BMP280;64008;55.612;37.698;2023-01-28T07:29:12;100440.59;;;10.12
75428;BMP280;64008;55.612;37.698;2023-01-28T07:31:38;100438.38;;;9.96
75428;BMP280;64008;55.612;37.698;2023-01-28T07:34:03;100442.78;;;10.15
75428;BMP280;64008;55.612;37.698;2023-01-28T07:36:31;100439.56;;;10.13
75428;BMP280;64008;55.612;37.698;2023-01-28T07:38:57;100432.66;;;10.19
75428;BMP280;64008;55.612;37.698;2023-01-28T07:41:22;100435.06;;;10.14
75428;BMP280;64008;55.612;37.698;2023-01-28T07:43:48;100431.00;;;10.04
75428;BMP280;64008;55.612;37.698;2023-01-28T07:46:13;100430.22;;;10.04
75428;BMP280;64008;55.612;37.698;2023-01-28T07:48:41;100430.81;;;10.06
75428;BMP280;64008;55.612;37.698;2023-01-28T07:51:06;100428.59;;;10.09
75428;BMP280;64008;55.612;37.698;2023-01-28T07:53:32;100433.84;;;10.23
75428;BMP280;64008;55.612;37.698;2023-01-28T07:55:59;100429.38;;;10.23
75428;BMP280;64008;55.612;37.698;2023-01-28T07:58:25;100431.44;;;10.21
75428;BMP280;64008;55.612;37.698;2023-01-28T08:00:50;100435.25;;;10.25
75428;BMP280;64008;55.612;37.698;2023-01-28T08:03:16;100434.25;;;10.26
75428;BMP280;64008;55.612;37.698;2023-01-28T08:05:45;100435.88;;;10.14
75428;BMP280;64008;55.612;37.698;2023-01-28T08:08:11;100432.22;;;10.28
75428;BMP280;64008;55.612;37.698;2023-01-28T08:10:37;100441.13;;;10.47
75428;BMP280;64008;55.612;37.698;2023-01-28T08:13:06;100434.44;;;10.38
75428;BMP280;64008;55.612;37.698;2023-01-28T08:15:32;100431.44;;;10.21
75428;BMP280;64008;55.612;37.698;2023-01-28T08:17:58;100428.38;;;10.38
75428;BMP280;64008;55.612;37.698;2023-01-28T08:20:25;100426.06;;;10.61
75428;BMP280;64008;55.612;37.698;2023-01-28T08:22:51;100417.34;;;12.68
75428;BMP280;64008;55.612;37.698;2023-01-28T08:25:19;100420.47;;;13.73
75428;BMP280;64008;55.612;37.698;2023-01-28T08:27:46;100425.31;;;14.52
75428;BMP280;64008;55.612;37.698;2023-01-28T08:30:11;100420.53;;;14.94
75428;BMP280;64008;55.612;37.698;2023-01-28T08:32:37;100421.31;;;15.24
75428;BMP280;64008;55.612;37.698;2023-01-28T08:35:05;100428.81;;;15.60
75428;BMP280;64008;55.612;37.698;2023-01-28T08:37:32;100429.97;;;15.87
75428;BMP280;64008;55.612;37.698;2023-01-28T08:39:57;100433.00;;;16.17
75428;BMP280;64008;55.612;37.698;2023-01-28T08:42:22;100424.69;;;16.36
75428;BMP280;64008;55.612;37.698;2023-01-28T08:44:48;100425.13;;;16.50
75428;BMP280;64008;55.612;37.698;2023-01-28T08:47:14;100423.97;;;16.67
75428;BMP280;64008;55.612;37.698;2023-01-28T08:49:39;100420.97;;;16.86
75428;BMP280;64008;55.612;37.698;2023-01-28T08:52:05;100413.03;;;16.96
75428;BMP280;64008;55.612;37.698;2023-01-28T08:54:32;100407.72;;;17.01
75428;BMP280;64008;55.612;37.698;2023-01-28T08:56:57;100408.00;;;17.05
75428;BMP280;64008;55.612;37.698;2023-01-28T08:59:25;100414.22;;;17.11
75428;BMP280;64008;55.612;37.698;2023-01-28T09:01:58;100411.34;;;17.17
75428;BMP280;64008;55.612;37.698;2023-01-28T09:04:23;100410.00;;;17.20
75428;BMP280;64008;55.612;37.698;2023-01-28T09:06:49;100400.13;;;17.20
75428;BMP280;64008;55.612;37.698;2023-01-28T09:09:14;100394.56;;;17.27
75428;BMP280;64008;55.612;37.698;2023-01-28T09:11:40;100402.03;;;17.25
75428;BMP280;64008;55.612;37.698;2023-01-28T09:14:06;100399.41;;;17.35
75428;BMP280;64008;55.612;37.698;2023-01-28T09:16:31;100394.63;;;17.37
75428;BMP280;64008;55.612;37.698;2023-01-28T09:18:57;100399.50;;;17.45
75428;BMP280;64008;55.612;37.698;2023-01-28T09:21:22;100387.22;;;17.49
75428;BMP280;64008;55.612;37.698;2023-01-28T09:23:48;100393.91;;;17.47
75428;BMP280;64008;55.612;37.698;2023-01-28T09:26:13;100381.59;;;17.46
75428;BMP280;64008;55.612;37.698;2023-01-28T09:28:39;100384.28;;;17.46
75428;BMP280;64008;55.612;37.698;2023-01-28T09:31:09;100390.44;;;17.51
75428;BMP280;64008;55.612;37.698;2023-01-28T09:33:37;100392.34;;;17.56
75428;BMP280;64008;55.612;37.698;2023-01-28T09:36:04;100388.63;;;17.57
75428;BMP280;64008;55.612;37.698;2023-01-28T09:38:31;100387.00;;;17.56
75428;BMP280;64008;55.612;37.698;2023-01-28T09:40:57;100393.69;;;17.59
75428;BMP280;64008;55.612;37.698;2023-01-28T09:43:39;100398.50;;;17.57
75428;BMP280;64008;55.612;37.698;2023-01-28T09:46:11;100392.78;;;17.38
75428;BMP280;64008;55.612;37.698;2023-01-28T09:48:42;100394.16;;;17.45
75428;BMP280;64008;55.612;37.698;2023-01-28T09:54:02;100376.81;;;17.48
75428;BMP280;64008;55.612;37.698;2023-01-28T09:56:41;100379.72;;;17.41
75428;BMP280;64008;55.612;37.698;2023-01-28T09:59:20;100382.66;;;17.50
75428;BMP280;64008;55.612;37.698;2023-01-28T10:15:28;100374.78;;;17.70
75428;BMP280;64008;55.612;37.698;2023-01-28T10:18:03;100356.34;;;17.74
75428;BMP280;64008;55.612;37.698;2023-01-28T10:20:39;100366.25;;;17.84
75428;BMP280;64008;55.612;37.698;2023-01-28T10:25:50;100357.72;;;17.82
75428;BMP280;64008;55.612;37.698;2023-01-28T10:28:21;100358.81;;;17.86
75428;BMP280;64008;55.612;37.698;2023-01-28T10:30:48;100356.41;;;17.94
75428;BMP280;64008;55.612;37.698;2023-01-28T10:33:21;100348.91;;;17.86
75428;BMP280;64008;55.612;37.698;2023-01-28T10:35:48;100355.91;;;17.98
75428;BMP280;64008;55.612;37.698;2023-01-28T10:38:16;100348.16;;;17.96
75428;BMP280;64008;55.612;37.698;2023-01-28T10:40:43;100347.34;;;17.90
75428;BMP280;64008;55.612;37.698;2023-01-28T10:43:16;100338.25;;;17.97
75428;BMP280;64008;55.612;37.698;2023-01-28T10:45:56;100339.59;;;17.99
75428;BMP280;64008;55.612;37.698;2023-01-28T10:48:29;100345.72;;;18.00
75428;BMP280;64008;55.612;37.698;2023-01-28T10:51:01;100338.28;;;18.02
75428;BMP280;64008;55.612;37.698;2023-01-28T10:53:47;100336.66;;;18.01
75428;BMP280;64008;55.612;37.698;2023-01-28T10:56:17;100346.50;;;17.90
75428;BMP280;64008;55.612;37.698;2023-01-28T10:59:04;100333.13;;;17.90
75428;BMP280;64008;55.612;37.698;2023-01-28T11:01:52;100331.28;;;17.90
75428;BMP280;64008;55.612;37.698;2023-01-28T11:07:15;100326.22;;;18.09
75428;BMP280;64008;55.612;37.698;2023-01-28T11:09:45;100324.94;;;18.12
75428;BMP280;64008;55.612;37.698;2023-01-28T11:12:13;100323.28;;;17.96
75428;BMP280;64008;55.612;37.698;2023-01-28T11:15:03;100320.03;;;17.78
75428;BMP280;64008;55.612;37.698;2023-01-28T11:17:32;100322.16;;;17.76
75428;BMP280;64008;55.612;37.698;2023-01-28T11:20:07;100327.00;;;17.84
75428;BMP280;64008;55.612;37.698;2023-01-28T11:22:44;100317.97;;;18.11
75428;BMP280;64008;55.612;37.698;2023-01-28T11:25:39;100316.13;;;18.22
75428;BMP280;64008;55.612;37.698;2023-01-28T11:28:13;100327.63;;;18.22
75428;BMP280;64008;55.612;37.698;2023-01-28T11:30:40;100324.94;;;18.32
75428;BMP280;64008;55.612;37.698;2023-01-28T11:33:13;100328.69;;;18.36
75428;BMP280;64008;55.612;37.698;2023-01-28T11:35:40;100331.09;;;18.38
75428;BMP280;64008;55.612;37.698;2023-01-28T11:38:20;100327.38;;;18.44
75428;BMP280;64008;55.612;37.698;2023-01-28T11:40:52;100322.81;;;18.40
75428;BMP280;64008;55.612;37.698;2023-01-28T11:43:21;100321.47;;;18.27
75428;BMP280;64008;55.612;37.698;2023-01-28T11:48:38;100313.69;;;18.15
75428;BMP280;64008;55.612;37.698;2023-01-28T11:59:53;100294.44;;;18.08
75428;BMP280;64008;55.612;37.698;2023-01-28T12:07:53;100276.22;;;18.00
75428;BMP280;64008;55.612;37.698;2023-01-28T12:35:19;100270.88;;;17.94
75428;BMP280;64008;55.612;37.698;2023-01-28T12:38:07;100261.78;;;17.96
75428;BMP280;64008;55.612;37.698;2023-01-28T12:41:10;100255.63;;;17.95
75428;BMP280;64008;55.612;37.698;2023-01-28T12:43:49;100256.97;;;17.87
75428;BMP280;64008;55.612;37.698;2023-01-28T12:49:20;100269.81;;;18.11
75428;BMP280;64008;55.612;37.698;2023-01-28T12:52:12;100264.72;;;18.04
75428;BMP280;64008;55.612;37.698;2023-01-28T12:55:00;100260.44;;;17.88
75428;BMP280;64008;55.612;37.698;2023-01-28T12:57:30;100263.13;;;17.83
75428;BMP280;64008;55.612;37.698;2023-01-28T13:02:36;100263.31;;;17.66
75428;BMP280;64008;55.612;37.698;2023-01-28T13:05:26;100257.44;;;17.64
75428;BMP280;64008;55.612;37.698;2023-01-28T13:08:00;100253.97;;;17.58
75428;BMP280;64008;55.612;37.698;2023-01-28T13:10:41;100255.28;;;17.56
75428;BMP280;64008;55.612;37.698;2023-01-28T13:13:17;100256.31;;;17.55
75428;BMP280;64008;55.612;37.698;2023-01-28T13:15:44;100249.94;;;17.56
75428;BMP280;64008;55.612;37.698;2023-01-28T13:20:54;100247.25;;;17.56
75428;BMP280;64008;55.612;37.698;2023-01-28T13:23:37;100242.97;;;17.49
75428;BMP280;64008;55.612;37.698;2023-01-28T13:26:24;100245.63;;;17.49
75428;BMP280;64008;55.612;37.698;2023-01-28T13:28:52;100249.94;;;17.56
75428;BMP280;64008;55.612;37.698;2023-01-28T13:31:21;100256.59;;;17.48
75428;BMP280;64008;55.612;37.698;2023-01-28T13:34:00;100253.91;;;17.43
75428;BMP280;64008;55.612;37.698;2023-01-28T13:36:42;100253.13;;;17.42
75428;BMP280;64008;55.612;37.698;2023-01-28T13:41:47;100250.47;;;17.53
75428;BMP280;64008;55.612;37.698;2023-01-28T13:46:47;100247.00;;;17.52
75428;BMP280;64008;55.612;37.698;2023-01-28T13:49:21;100237.13;;;17.58
75428;BMP280;64008;55.612;37.698;2023-01-28T13:52:30;100234.47;;;17.63
75428;BMP280;64008;55.612;37.698;2023-01-28T13:55:17;100246.16;;;17.46
75428;BMP280;64008;55.612;37.698;2023-01-28T14:06:19;100232.56;;;17.53
75428;BMP280;64008;55.612;37.698;2023-01-28T14:17:04;100225.03;;;17.45
75428;BMP280;64008;55.612;37.698;2023-01-28T14:19:35;100223.47;;;17.54
75428;BMP280;64008;55.612;37.698;2023-01-28T14:22:09;100207.41;;;17.44
75428;BMP280;64008;55.612;37.698;2023-01-28T14:24:38;100211.16;;;17.38
75428;BMP280;64008;55.612;37.698;2023-01-28T14:27:08;100210.63;;;17.41
75428;BMP280;64008;55.612;37.698;2023-01-28T14:32:21;100205.53;;;17.34
75428;BMP280;64008;55.612;37.698;2023-01-28T14:34:51;100209.50;;;17.26
75428;BMP280;64008;55.612;37.698;2023-01-28T14:37:23;100208.22;;;17.44
75428;BMP280;64008;55.612;37.698;2023-01-28T14:40:15;100208.75;;;17.46
75428;BMP280;64008;55.612;37.698;2023-01-28T14:42:46;100216.25;;;17.55
75428;BMP280;64008;55.612;37.698;2023-01-28T14:45:28;100211.97;;;17.43
75428;BMP280;64008;55.612;37.698;2023-01-28T14:59:12;100213.13;;;17.73
75428;BMP280;64008;55.612;37.698;2023-01-28T15:01:45;100206.66;;;17.64
75428;BMP280;64008;55.612;37.698;2023-01-28T15:04:30;100204.81;;;17.69
75428;BMP280;64008;55.612;37.698;2023-01-28T15:07:01;100204.25;;;17.57
75428;BMP280;64008;55.612;37.698;2023-01-28T15:09:39;100200.53;;;17.73
75428;BMP280;64008;55.612;37.698;2023-01-28T15:12:08;100193.03;;;17.76
75428;BMP280;64008;55.612;37.698;2023-01-28T15:14:34;100193.56;;;17.62
75428;BMP280;64008;55.612;37.698;2023-01-28T15:17:00;100193.81;;;17.50
75428;BMP280;64008;55.612;37.698;2023-01-28T15:19:29;100191.13;;;17.45
75428;BMP280;64008;55.612;37.698;2023-01-28T15:22:04;100191.69;;;17.53
75428;BMP280;64008;55.612;37.698;2023-01-28T15:24:33;100189.25;;;17.46
75428;BMP280;64008;55.612;37.698;2023-01-28T15:26:59;100194.88;;;17.44
75428;BMP280;64008;55.612;37.698;2023-01-28T15:29:33;100189.53;;;17.44
75428;BMP280;64008;55.612;37.698;2023-01-28T15:31:59;100196.75;;;17.59
75428;BMP280;64008;55.612;37.698;2023-01-28T15:34:26;100192.19;;;17.49
75428;BMP280;64008;55.612;37.698;2023-01-28T15:37:00;100190.06;;;17.41
75428;BMP280;64008;55.612;37.698;2023-01-28T15:39:28;100193.78;;;17.40
75428;BMP280;64008;55.612;37.698;2023-01-28T15:41:58;100193.25;;;17.48
75428;BMP280;64008;55.612;37.698;2023-01-28T15:44:34;100188.72;;;17.49
75428;BMP280;64008;55.612;37.698;2023-01-28T15:47:28;100186.59;;;17.46
75428;BMP280;64008;55.612;37.698;2023-01-28T15:50:03;100189.53;;;17.49
75428;BMP280;64008;55.612;37.698;2023-01-28T15:52:40;100188.72;;;17.49
75428;BMP280;64008;55.612;37.698;2023-01-28T15:55:07;100190.13;;;17.62
75428;BMP280;64008;55.612;37.698;2023-01-28T15:57:33;100183.44;;;17.85
75428;BMP280;64008;55.612;37.698;2023-01-28T16:02:31;100183.69;;;17.93
75428;BMP280;64008;55.612;37.698;2023-01-28T16:05:01;100179.72;;;18.01
75428;BMP280;64008;55.612;37.698;2023-01-28T16:07:30;100184.25;;;17.96
75428;BMP280;64008;55.612;37.698;2023-01-28T16:09:58;100176.25;;;18.01
75428;BMP280;64008;55.612;37.698;2023-01-28T16:12:25;100171.94;;;18.00